Terminal Aerodrome Forecast
Issued by NWS

Home | Current Version | Previous Version | Graphics & Text | Print | Product List | Glossary On
Versions: 1 2 3 4 5 6 7 8 9 10 11 12 13 14 15 16 17 18 19
000
FTUS43 KICT 292104 AAA
TAFRSL
TAF AMD
KRSL 292104Z 2921/3018 06018G28KT P6SM VCSH OVC007
     FM300200 03017G24KT 4SM BR VCSH OVC004
     FM300700 32013KT 3SM BR OVC006
     FM301500 29016KT P6SM SCT040=

USA.gov is the U.S. government's official web portal to all federal, state and local government web resources and services.